DLH136 EDDH-ENZV
Flight info
| Callsign | DLH136 |
|---|---|
| Flight time | N/A |
| Altitude | 40000 |
| Route | ELSOB3G/33 ELSOB Y348 OMWEG DCT BADOS DCT ATTUS DCT RIVEX RIVEX3R |
| Aircraft | A359/H-SDE2E3GHIJ3J4J5LM1ORWXY/LB1D1 |
Departure
| Time | 2026-05-06 17:14 |
|---|---|
| Airport | Hamburg Helmut Schmidt Airport (EDDH) |
Arrival
| Time | N/A |
|---|---|
| Airport | Stavanger Airport, Sola (ENZV) |
| Time | Latitude | Longitude | Altitude | Speed | Heading |
|---|---|---|---|---|---|
| 2026-05-06 16:26 | 53.63105 | 10.00376 | 52 ft | 0 kts | 85° |
| 2026-05-06 16:53 | 53.63105 | 10.00369 | 52 ft | 3 kts | 86° |
| 2026-05-06 16:53 | 53.63106 | 10.00324 | 52 ft | 4 kts | 101° |
| 2026-05-06 16:53 | 53.63114 | 10.00281 | 48 ft | 4 kts | 119° |
| 2026-05-06 16:53 | 53.63129 | 10.00245 | 45 ft | 4 kts | 139° |
| 2026-05-06 16:54 | 53.63151 | 10.00222 | 48 ft | 4 kts | 165° |
| 2026-05-06 16:54 | 53.63162 | 10.00219 | 46 ft | 0 kts | 176° |
| 2026-05-06 16:57 | 53.63160 | 10.00219 | 52 ft | 2 kts | 175° |
| 2026-05-06 16:57 | 53.63120 | 10.00225 | 47 ft | 7 kts | 175° |
| 2026-05-06 16:57 | 53.63071 | 10.00215 | 47 ft | 7 kts | 199° |
| 2026-05-06 16:57 | 53.63028 | 10.00175 | 52 ft | 7 kts | 211° |
| 2026-05-06 16:58 | 53.62984 | 10.00129 | 48 ft | 8 kts | 212° |
| 2026-05-06 16:58 | 53.62949 | 10.00064 | 45 ft | 8 kts | 233° |
| 2026-05-06 16:58 | 53.62929 | 10.00013 | 48 ft | 0 kts | 240° |
| 2026-05-06 16:58 | 53.62922 | 9.99992 | 52 ft | 6 kts | 240° |
| 2026-05-06 16:59 | 53.62901 | 9.99925 | 45 ft | 5 kts | 242° |
| 2026-05-06 16:59 | 53.62900 | 9.99924 | 46 ft | 0 kts | 242° |
| 2026-05-06 17:05 | 53.62888 | 9.99884 | 49 ft | 7 kts | 242° |
| 2026-05-06 17:05 | 53.62868 | 9.99820 | 48 ft | 6 kts | 242° |
| 2026-05-06 17:05 | 53.62866 | 9.99755 | 53 ft | 5 kts | 296° |
| 2026-05-06 17:05 | 53.62892 | 9.99723 | 49 ft | 5 kts | 334° |
| 2026-05-06 17:06 | 53.62898 | 9.99718 | 49 ft | 0 kts | 333° |
| 2026-05-06 17:13 | 53.62905 | 9.99712 | 53 ft | 8 kts | 333° |
| 2026-05-06 17:13 | 53.63186 | 9.99470 | 45 ft | 84 kts | 333° |
| 2026-05-06 17:13 | 53.63923 | 9.98833 | 45 ft | 152 kts | 333° |
| 2026-05-06 17:13 | 53.64945 | 9.97954 | 639 ft | 160 kts | 335° |
| 2026-05-06 17:14 | 53.65912 | 9.97112 | 1415 ft | 165 kts | 338° |
| 2026-05-06 17:14 | 53.67047 | 9.96162 | 1738 ft | 192 kts | 339° |
| 2026-05-06 17:14 | 53.68295 | 9.95118 | 1884 ft | 213 kts | 338° |
| 2026-05-06 17:14 | 53.69647 | 9.93961 | 2291 ft | 222 kts | 337° |
| 2026-05-06 17:15 | 53.70910 | 9.92387 | 2778 ft | 234 kts | 313° |
| 2026-05-06 17:15 | 53.71530 | 9.89780 | 3128 ft | 254 kts | 276° |
| 2026-05-06 17:15 | 53.71225 | 9.86749 | 3366 ft | 271 kts | 251° |
| 2026-05-06 17:15 | 53.70552 | 9.83730 | 3874 ft | 276 kts | 249° |
| 2026-05-06 17:16 | 53.69868 | 9.80693 | 4468 ft | 277 kts | 250° |
| 2026-05-06 17:16 | 53.69209 | 9.77628 | 5096 ft | 278 kts | 251° |
| 2026-05-06 17:16 | 53.68573 | 9.74555 | 5724 ft | 277 kts | 252° |
| 2026-05-06 17:16 | 53.67954 | 9.71478 | 6393 ft | 277 kts | 252° |
| 2026-05-06 17:17 | 53.67332 | 9.68375 | 6910 ft | 281 kts | 252° |
| 2026-05-06 17:17 | 53.66767 | 9.65220 | 7511 ft | 282 kts | 259° |
| 2026-05-06 17:17 | 53.66607 | 9.61925 | 8066 ft | 282 kts | 277° |
| 2026-05-06 17:17 | 53.67149 | 9.58801 | 8689 ft | 278 kts | 302° |
| 2026-05-06 17:18 | 53.68429 | 9.56431 | 9325 ft | 273 kts | 327° |
| 2026-05-06 17:18 | 53.70078 | 9.54815 | 9909 ft | 274 kts | 336° |
| 2026-05-06 17:18 | 53.71868 | 9.53569 | 10315 ft | 286 kts | 341° |
| 2026-05-06 17:18 | 53.73806 | 9.52456 | 10554 ft | 301 kts | 343° |
| 2026-05-06 17:19 | 53.75852 | 9.51350 | 10842 ft | 317 kts | 342° |
| 2026-05-06 17:19 | 53.78010 | 9.50156 | 11172 ft | 335 kts | 342° |
| 2026-05-06 17:19 | 53.80269 | 9.48850 | 11511 ft | 352 kts | 341° |
| 2026-05-06 17:19 | 53.82623 | 9.47431 | 11985 ft | 364 kts | 340° |
| 2026-05-06 17:20 | 53.85028 | 9.45941 | 12614 ft | 373 kts | 340° |
| 2026-05-06 17:20 | 53.87477 | 9.44403 | 13425 ft | 375 kts | 339° |
| 2026-05-06 17:20 | 53.89918 | 9.42863 | 14307 ft | 374 kts | 339° |
| 2026-05-06 17:20 | 53.92371 | 9.41309 | 14880 ft | 381 kts | 338° |
| 2026-05-06 17:21 | 53.94875 | 9.39720 | 15451 ft | 387 kts | 338° |
| 2026-05-06 17:21 | 53.97415 | 9.38112 | 16060 ft | 393 kts | 339° |
| 2026-05-06 17:21 | 53.99995 | 9.36479 | 16677 ft | 397 kts | 338° |
| 2026-05-06 17:21 | 54.02603 | 9.34829 | 17263 ft | 403 kts | 338° |
| 2026-05-06 17:22 | 54.05259 | 9.33147 | 17847 ft | 408 kts | 338° |
| 2026-05-06 17:22 | 54.07940 | 9.31448 | 18426 ft | 412 kts | 338° |
| 2026-05-06 17:22 | 54.10614 | 9.29752 | 18985 ft | 414 kts | 338° |
| 2026-05-06 17:22 | 54.13335 | 9.28024 | 19561 ft | 417 kts | 338° |
| 2026-05-06 17:23 | 54.16025 | 9.26314 | 20057 ft | 420 kts | 338° |
| 2026-05-06 17:23 | 54.18775 | 9.24562 | 20584 ft | 423 kts | 338° |
| 2026-05-06 17:23 | 54.21543 | 9.22795 | 21137 ft | 425 kts | 337° |
| 2026-05-06 17:23 | 54.24330 | 9.21014 | 21626 ft | 428 kts | 337° |
| 2026-05-06 17:24 | 54.27137 | 9.19216 | 22149 ft | 431 kts | 337° |